AirSardinia Virtual Manager

AirSardinia Virtual La prima compagnia sarda di volo simulato




 METAR AND TAF INFORMATION
METAR FOR HEAX
ADDS - METARS form results

(1400 UTC 18 August 2019)
Data provider http://aviationweather.gov/metar/data/
 
Forecast for: HEAX (ALEXANDRIA/NOUZH, EG)
Text: TAF HEAX 181100Z 1812/1918 30012KT 9999 FEW020
Forecast period: 1200 UTC 18 August 2019 to 1800 UTC 19 August 2019
Forecast type: FROM: standard forecast or significant change
Winds: from the WNW (300 degrees) at 14 MPH (12 knots; 6.2 m/s)
Visibility: 6 or more miles 10+ km)
Ceiling: at least 12,000 feet AGL
Clouds: few clouds at 2000 feet AGL
Weather: no significant weather forecast for this period

 AIRPORT MAP

 RUNWAY INFORMATION
Runway 04 Runway length 7221 ft Runway width 148 ft
Runway elevation 0 ft Runway displaced threshold 0 ft Runway heading 45
Runway 22 Runway length 7221 ft Runway width 148 ft
Runway elevation 0 ft Runway displaced threshold 0 ft Runway heading 225
Runway 18 Runway length 5909 ft Runway width 98 ft
Runway elevation 0 ft Runway displaced threshold 0 ft Runway heading 180
Runway 36 Runway length 5909 ft Runway width 98 ft
Runway elevation 0 ft Runway displaced threshold 0 ft Runway heading 360

 AIRPORT FREQUENCIES
Type RDO Name ALX RADIO Frequency 5.79 MHz
Type TWR Name TWR Frequency 120.3 MHz

 AIRPORT NEAR NAVIGATION AIDS
Type VOR-DME Name Alexandria Frequency 115.9 MHz
Type NDB Name Alexandria Frequency 403 kHz